Time;durP1;ratioP1;P1;durP2;ratioP2;P2;SDS_P1;SDS_P2;PMS_P1;PMS_P2;Temp;Humidity;BMP_temperature;BMP_pressure;BME280_temperature;BME280_humidity;BME280_pressure;Samples;Min_cycle;Max_cycle;Signal;HPM_P1;HPM_P2
2023/12/04 00:02:14;;;;;;;15.40;8.45;;;-8.80;47.90;;;;;;6277380;22;20635;-70
2023/12/04 00:04:42;;;;;;;16.10;10.65;;;-8.90;47.70;;;;;;6277154;22;20260;-70
2023/12/04 00:07:09;;;;;;;17.13;10.38;;;-9.00;47.80;;;;;;6277707;22;20227;-70
2023/12/04 00:09:36;;;;;;;16.83;9.18;;;-9.00;47.70;;;;;;6277019;22;20675;-70
2023/12/04 00:12:03;;;;;;;11.82;8.40;;;-9.00;47.30;;;;;;6276937;22;20240;-70
2023/12/04 00:14:30;;;;;;;14.07;6.90;;;-9.00;46.90;;;;;;6277699;22;20253;-70
2023/12/04 00:16:57;;;;;;;13.18;7.05;;;-9.10;47.10;;;;;;6277627;22;20174;-70
2023/12/04 00:19:24;;;;;;;12.90;6.50;;;-9.10;47.50;;;;;;6277414;22;20700;-71
2023/12/04 00:21:52;;;;;;;15.23;8.10;;;-9.10;47.70;;;;;;6277043;22;20240;-71
2023/12/04 00:24:19;;;;;;;14.80;8.00;;;-9.10;48.40;;;;;;6277315;22;20577;-70
2023/12/04 00:26:45;;;;;;;28.33;9.45;;;-9.00;49.50;;;;;;6277147;22;20253;-70
2023/12/04 00:29:12;;;;;;;29.40;11.15;;;-9.00;50.00;;;;;;6277074;22;20260;-70
2023/12/04 00:31:39;;;;;;;15.40;7.50;;;-8.90;50.60;;;;;;6277518;22;20545;-70
2023/12/04 00:34:06;;;;;;;21.77;9.55;;;-8.90;50.20;;;;;;6277186;22;20162;-70
2023/12/04 00:36:33;;;;;;;14.23;8.65;;;-8.90;48.90;;;;;;6276496;22;20173;-71
2023/12/04 00:39:01;;;;;;;15.07;7.03;;;-8.90;48.90;;;;;;6277445;22;20197;-70
2023/12/04 00:41:28;;;;;;;23.90;7.50;;;-8.90;49.60;;;;;;6277386;22;20537;-72
2023/12/04 00:43:55;;;;;;;32.30;10.52;;;-8.90;49.80;;;;;;6277088;22;20264;-70
2023/12/04 00:46:22;;;;;;;19.65;7.30;;;-8.90;48.90;;;;;;6277353;22;20545;-70
2023/12/04 00:48:49;;;;;;;20.55;9.70;;;-8.90;48.80;;;;;;6276636;22;20245;-70
2023/12/04 00:51:15;;;;;;;16.20;7.55;;;-8.90;49.00;;;;;;6277284;22;20240;-71
2023/12/04 00:53:42;;;;;;;18.77;7.65;;;-8.90;49.50;;;;;;6276846;22;20245;-70
2023/12/04 00:56:12;;;;;;;19.85;8.10;;;-8.90;49.00;;;;;;6277185;22;20240;-70
2023/12/04 00:58:38;;;;;;;15.38;6.85;;;-8.90;48.20;;;;;;6277304;22;20245;-70
2023/12/04 01:01:06;;;;;;;14.15;7.40;;;-9.00;47.90;;;;;;6276671;22;20192;-71
2023/12/04 01:03:33;;;;;;;9.15;6.47;;;-9.00;47.90;;;;;;6276666;22;20265;-70
2023/12/04 01:06:00;;;;;;;16.02;7.90;;;-9.00;47.50;;;;;;6276689;22;20240;-70
2023/12/04 01:08:26;;;;;;;17.67;7.72;;;-9.00;48.40;;;;;;6277105;22;20165;-71
2023/12/04 01:10:53;;;;;;;16.33;7.60;;;-9.00;48.90;;;;;;6277421;22;20525;-70
2023/12/04 01:13:22;;;;;;;13.55;6.75;;;-9.00;48.80;;;;;;6277170;22;20245;-72
2023/12/04 01:15:49;;;;;;;14.35;6.47;;;-9.10;47.80;;;;;;6277016;22;20248;-70
2023/12/04 01:18:16;;;;;;;12.25;6.53;;;-9.10;47.20;;;;;;6276710;22;20245;-72
2023/12/04 01:20:42;;;;;;;14.15;7.72;;;-9.10;47.50;;;;;;6276731;22;20197;-71
2023/12/04 01:23:09;;;;;;;10.30;5.15;;;-9.10;49.70;;;;;;6277086;22;20548;-71
2023/12/04 01:25:36;;;;;;;12.65;6.20;;;-9.00;50.50;;;;;;6276634;22;20665;-70
2023/12/04 01:28:03;;;;;;;11.30;5.97;;;-9.00;51.00;;;;;;6276555;22;20249;-70
2023/12/04 01:30:31;;;;;;;10.02;5.10;;;-8.90;51.40;;;;;;6277040;22;20245;-70
2023/12/04 01:32:58;;;;;;;12.27;6.05;;;-8.80;50.60;;;;;;6277060;22;20351;-70
2023/12/04 01:35:25;;;;;;;11.73;6.90;;;-8.80;49.50;;;;;;6276964;22;20248;-71
2023/12/04 01:37:52;;;;;;;9.57;4.30;;;-8.80;49.60;;;;;;6276638;22;20197;-71
2023/12/04 01:40:19;;;;;;;8.20;3.72;;;-8.90;50.70;;;;;;6276565;22;20240;-70
2023/12/04 01:42:46;;;;;;;6.78;4.00;;;-8.90;51.40;;;;;;6276464;22;20343;-72
2023/12/04 01:45:13;;;;;;;9.13;5.35;;;-8.80;52.00;;;;;;6275952;22;20280;-70
2023/12/04 01:47:41;;;;;;;11.35;4.18;;;-8.70;51.80;;;;;;6276768;22;20240;-70
2023/12/04 01:50:09;;;;;;;9.50;4.68;;;-8.70;51.40;;;;;;6276536;22;20829;-70
2023/12/04 01:52:37;;;;;;;8.55;4.45;;;-8.60;51.40;;;;;;6276392;22;20197;-70
2023/12/04 01:55:05;;;;;;;8.30;4.78;;;-8.60;49.80;;;;;;6276863;22;20244;-70
2023/12/04 01:57:32;;;;;;;7.80;4.15;;;-8.60;48.80;;;;;;6276247;22;20681;-70
2023/12/04 01:59:59;;;;;;;9.13;3.90;;;-8.70;48.60;;;;;;6276493;22;20200;-70
2023/12/04 02:02:26;;;;;;;12.15;5.43;;;-8.70;48.40;;;;;;6276975;22;20540;-70
2023/12/04 02:04:56;;;;;;;8.90;4.47;;;-8.80;48.60;;;;;;6276718;22;20519;-75
2023/12/04 02:07:24;;;;;;;9.30;4.47;;;-8.80;49.30;;;;;;6276160;22;20305;-70
2023/12/04 02:09:51;;;;;;;8.40;4.70;;;-8.80;48.00;;;;;;6276114;22;20241;-70
2023/12/04 02:12:18;;;;;;;6.95;3.95;;;-8.90;48.60;;;;;;6276615;22;20545;-70
2023/12/04 02:14:45;;;;;;;9.00;3.55;;;-8.90;49.20;;;;;;6276851;22;20552;-70
2023/12/04 02:17:13;;;;;;;7.82;2.95;;;-8.90;50.00;;;;;;6276444;22;20240;-70
2023/12/04 02:19:40;;;;;;;5.32;2.85;;;-8.90;50.40;;;;;;6276749;22;20532;-70
2023/12/04 02:22:08;;;;;;;8.70;3.30;;;-8.90;49.50;;;;;;6276509;22;20241;-70
2023/12/04 02:24:37;;;;;;;6.85;4.07;;;-8.90;50.30;;;;;;6276498;22;20573;-70
2023/12/04 02:27:14;;;;;;;8.75;4.68;;;-8.80;50.80;;;;;;6276706;22;20249;-70
2023/12/04 02:29:47;;;;;;;8.75;5.68;;;-8.80;48.90;;;;;;6276535;22;20219;-70
2023/12/04 02:32:18;;;;;;;17.02;4.38;;;-8.90;47.60;;;;;;6276697;22;20471;-70
2023/12/04 02:34:46;;;;;;;7.00;4.40;;;-9.00;47.50;;;;;;6276760;22;20185;-70
2023/12/04 02:37:15;;;;;;;10.15;5.95;;;-9.10;47.50;;;;;;6276633;22;20200;-70
2023/12/04 02:39:43;;;;;;;7.43;5.30;;;-9.20;46.80;;;;;;6276193;22;20244;-70
2023/12/04 02:42:12;;;;;;;8.15;4.85;;;-9.30;45.90;;;;;;6276843;22;20488;-70
2023/12/04 02:44:39;;;;;;;7.90;4.50;;;-9.40;45.50;;;;;;6276239;22;20208;-70
2023/12/04 02:47:06;;;;;;;7.65;4.07;;;-9.50;45.70;;;;;;6276319;22;20547;-71
2023/12/04 02:49:32;;;;;;;7.57;4.90;;;-9.50;46.60;;;;;;6276543;22;20516;-70
2023/12/04 02:51:59;;;;;;;6.20;4.00;;;-9.60;46.30;;;;;;6276204;22;20660;-70
2023/12/04 02:54:26;;;;;;;6.05;3.28;;;-9.60;46.70;;;;;;6276213;22;20223;-70
2023/12/04 02:56:55;;;;;;;6.20;3.33;;;-9.60;47.50;;;;;;6276067;22;20240;-71
2023/12/04 02:59:21;;;;;;;2.80;1.92;;;-9.60;47.70;;;;;;6277542;22;20542;-70
2023/12/04 03:01:48;;;;;;;9.43;3.90;;;-9.60;46.70;;;;;;6278033;22;20269;-70
2023/12/04 03:04:15;;;;;;;6.45;3.28;;;-9.60;46.90;;;;;;6277901;22;20639;-70
2023/12/04 03:06:42;;;;;;;5.85;3.28;;;-9.70;46.90;;;;;;6278459;22;20166;-70
2023/12/04 03:09:09;;;;;;;6.60;3.53;;;-9.70;47.30;;;;;;6277687;22;20169;-70
2023/12/04 03:11:36;;;;;;;6.63;3.47;;;-9.80;46.90;;;;;;6278514;22;20231;-70
2023/12/04 03:14:04;;;;;;;8.98;3.90;;;-9.80;47.10;;;;;;6277641;22;20249;-70
2023/12/04 03:16:31;;;;;;;7.75;4.05;;;-9.90;47.70;;;;;;6278532;22;20488;-70
2023/12/04 03:18:58;;;;;;;5.70;4.03;;;-9.90;48.20;;;;;;6278447;22;20545;-70
2023/12/04 03:21:25;;;;;;;6.57;2.72;;;-9.90;48.40;;;;;;6278247;22;20197;-70
2023/12/04 03:23:52;;;;;;;8.30;3.47;;;-9.90;47.40;;;;;;6278144;22;20261;-70
2023/12/04 03:26:18;;;;;;;6.03;3.10;;;-10.00;45.60;;;;;;6278018;22;20248;-70
2023/12/04 03:28:45;;;;;;;9.75;3.90;;;-10.10;45.30;;;;;;6277943;22;20268;-70
2023/12/04 03:31:14;;;;;;;13.15;4.47;;;-10.10;45.80;;;;;;6278306;22;20204;-70
2023/12/04 03:33:40;;;;;;;8.35;3.55;;;-10.20;46.40;;;;;;6278046;22;20538;-70
2023/12/04 03:36:08;;;;;;;6.72;3.28;;;-10.20;47.30;;;;;;6278374;22;20493;-70
2023/12/04 03:38:35;;;;;;;6.28;3.88;;;-10.10;47.20;;;;;;6277966;22;20196;-70
2023/12/04 03:41:02;;;;;;;8.82;2.92;;;-10.10;47.50;;;;;;6277620;22;20197;-70
2023/12/04 03:43:29;;;;;;;5.68;3.60;;;-10.10;47.70;;;;;;6277129;22;20253;-70
2023/12/04 03:45:56;;;;;;;6.18;3.42;;;-10.10;48.30;;;;;;6277215;22;20239;-70
2023/12/04 03:48:24;;;;;;;8.27;3.13;;;-10.00;49.00;;;;;;6277445;22;20241;-70
2023/12/04 03:50:51;;;;;;;6.90;3.70;;;-10.00;48.70;;;;;;6277925;22;20193;-70
2023/12/04 03:53:18;;;;;;;6.20;3.10;;;-10.00;47.80;;;;;;6278005;22;20530;-70
2023/12/04 03:55:45;;;;;;;7.50;3.63;;;-10.00;47.50;;;;;;6277792;22;20197;-70
2023/12/04 03:58:12;;;;;;;10.13;4.15;;;-10.00;47.50;;;;;;6277517;22;20241;-70
2023/12/04 04:00:40;;;;;;;9.02;4.38;;;-10.00;47.20;;;;;;6277790;22;20208;-70
2023/12/04 04:03:08;;;;;;;5.25;2.90;;;-10.00;47.10;;;;;;6277821;22;20161;-70
2023/12/04 04:05:36;;;;;;;6.05;2.90;;;-9.90;47.60;;;;;;6277273;22;20186;-70
2023/12/04 04:08:05;;;;;;;11.32;3.55;;;-9.90;48.10;;;;;;6277803;22;20165;-70
2023/12/04 04:10:32;;;;;;;9.27;4.72;;;-9.90;48.30;;;;;;6277343;22;20166;-70
2023/12/04 04:12:59;;;;;;;9.63;4.43;;;-9.90;48.00;;;;;;6277035;22;20166;-70
2023/12/04 04:15:27;;;;;;;9.27;4.32;;;-9.80;48.10;;;;;;6277317;22;20169;-71
2023/12/04 04:17:54;;;;;;;9.98;5.10;;;-9.80;48.30;;;;;;6277640;22;20473;-70
2023/12/04 04:20:21;;;;;;;9.35;4.65;;;-9.80;48.40;;;;;;6277312;22;20196;-70
2023/12/04 04:22:50;;;;;;;10.25;5.78;;;-9.80;48.80;;;;;;6277709;22;20240;-70
2023/12/04 04:25:18;;;;;;;6.75;4.00;;;-9.80;49.20;;;;;;6277482;22;20181;-70
2023/12/04 04:27:50;;;;;;;14.45;4.43;;;-9.80;48.80;;;;;;6277007;22;20162;-70
2023/12/04 04:30:17;;;;;;;10.13;5.57;;;-9.80;48.50;;;;;;6277213;22;20229;-70
2023/12/04 04:32:44;;;;;;;9.98;4.45;;;-9.80;48.40;;;;;;6277610;22;20489;-70
2023/12/04 04:35:11;;;;;;;9.18;3.25;;;-9.80;47.70;;;;;;6277103;22;20197;-70
2023/12/04 04:37:38;;;;;;;7.50;5.00;;;-9.80;47.60;;;;;;6277471;22;20235;-70
2023/12/04 04:40:07;;;;;;;7.05;6.35;;;-9.80;47.90;;;;;;6277422;22;20538;-70
2023/12/04 04:42:34;;;;;;;7.07;4.60;;;-9.80;48.40;;;;;;6277089;22;20240;-70
2023/12/04 04:45:01;;;;;;;14.23;5.03;;;-9.80;48.70;;;;;;6277283;22;20576;-70
2023/12/04 04:47:28;;;;;;;11.57;5.07;;;-9.80;48.60;;;;;;6277037;22;20203;-70
2023/12/04 04:49:55;;;;;;;8.43;4.53;;;-9.80;47.80;;;;;;6277324;22;20483;-70
2023/12/04 04:52:22;;;;;;;5.47;3.40;;;-9.80;47.30;;;;;;6277376;22;20241;-70
2023/12/04 04:54:49;;;;;;;10.02;4.10;;;-9.90;46.10;;;;;;6277358;22;20244;-70
2023/12/04 04:57:17;;;;;;;5.22;3.30;;;-9.90;45.50;;;;;;6276823;22;20301;-70
2023/12/04 04:59:44;;;;;;;7.72;3.80;;;-10.00;45.10;;;;;;6277319;22;20241;-70
2023/12/04 05:02:11;;;;;;;8.77;4.53;;;-10.10;45.00;;;;;;6277479;22;20193;-70
2023/12/04 05:04:38;;;;;;;4.70;2.95;;;-10.20;45.90;;;;;;6277097;22;20181;-70
2023/12/04 05:07:05;;;;;;;6.40;4.00;;;-10.20;46.40;;;;;;6276986;22;20244;-70
2023/12/04 05:09:32;;;;;;;7.05;4.10;;;-10.20;46.90;;;;;;6277136;22;20193;-70
2023/12/04 05:11:58;;;;;;;6.97;4.32;;;-10.20;47.30;;;;;;6277032;22;20321;-70
2023/12/04 05:14:27;;;;;;;6.35;3.22;;;-10.20;47.60;;;;;;6277579;22;20208;-70
2023/12/04 05:16:54;;;;;;;9.02;3.58;;;-10.20;48.00;;;;;;6277458;22;20484;-70
2023/12/04 05:19:21;;;;;;;11.10;5.40;;;-10.20;48.20;;;;;;6277271;22;20212;-70
2023/12/04 05:21:47;;;;;;;8.43;4.90;;;-10.20;48.80;;;;;;6276838;22;20273;-70
2023/12/04 05:24:15;;;;;;;8.98;5.03;;;-10.10;49.00;;;;;;6277403;22;20244;-70
2023/12/04 05:26:42;;;;;;;12.43;7.55;;;-10.00;49.30;;;;;;6277188;22;20194;-70
2023/12/04 05:29:08;;;;;;;16.35;11.52;;;-10.00;49.90;;;;;;6277375;22;20161;-70
2023/12/04 05:31:37;;;;;;;17.55;11.57;;;-9.80;50.60;;;;;;6276496;22;20193;-70
2023/12/04 05:34:04;;;;;;;11.18;8.02;;;-9.80;51.80;;;;;;6276897;22;20663;-70
2023/12/04 05:36:30;;;;;;;14.82;9.02;;;-9.70;51.60;;;;;;6276993;22;20220;-70
2023/12/04 05:38:57;;;;;;;16.00;8.70;;;-9.60;51.80;;;;;;6277312;22;20524;-70
2023/12/04 05:41:24;;;;;;;11.45;6.47;;;-9.50;51.60;;;;;;6277108;22;20245;-70
2023/12/04 05:43:51;;;;;;;17.85;8.23;;;-9.40;51.50;;;;;;6276607;22;20193;-71
2023/12/04 05:46:18;;;;;;;12.93;7.25;;;-9.40;51.50;;;;;;6246148;23;20232;-70
2023/12/04 05:48:46;;;;;;;16.95;6.47;;;-9.30;51.30;;;;;;6246155;23;20245;-70
2023/12/04 05:51:14;;;;;;;11.32;6.13;;;-9.30;50.80;;;;;;6246574;23;20296;-70
2023/12/04 05:53:41;;;;;;;11.07;7.18;;;-9.30;50.00;;;;;;6246175;23;20213;-70
2023/12/04 05:56:09;;;;;;;14.32;6.57;;;-9.40;49.50;;;;;;6246598;23;20174;-70
2023/12/04 05:58:36;;;;;;;15.63;9.80;;;-9.40;49.40;;;;;;6245970;23;20173;-71
2023/12/04 06:01:04;;;;;;;178.35;40.67;;;-9.40;49.40;;;;;;6246003;23;20193;-70
2023/12/04 06:03:31;;;;;;;21.35;9.30;;;-9.40;49.60;;;;;;6246641;23;20544;-70
2023/12/04 06:05:59;;;;;;;14.02;6.35;;;-9.40;49.60;;;;;;6246261;23;20201;-70
2023/12/04 06:08:26;;;;;;;10.10;6.10;;;-9.40;48.50;;;;;;6245643;23;20516;-71
2023/12/04 06:10:52;;;;;;;11.32;5.50;;;-9.40;47.70;;;;;;6246104;23;20198;-70
2023/12/04 06:13:19;;;;;;;16.38;5.88;;;-9.40;47.20;;;;;;6245804;23;20242;-70
2023/12/04 06:15:46;;;;;;;14.38;7.03;;;-9.60;47.10;;;;;;6246151;23;20525;-70
2023/12/04 06:18:13;;;;;;;10.50;7.22;;;-9.70;47.60;;;;;;6243702;23;20200;-70
2023/12/04 06:20:40;;;;;;;19.63;9.68;;;-9.70;48.30;;;;;;6245687;23;20245;-71
2023/12/04 06:23:09;;;;;;;15.68;6.35;;;-9.70;49.00;;;;;;6245827;23;20174;-78
2023/12/04 06:25:38;;;;;;;14.18;5.65;;;-9.70;49.50;;;;;;6245332;23;20268;-71
2023/12/04 06:28:05;;;;;;;11.75;6.80;;;-9.70;48.90;;;;;;6245570;23;20162;-71
2023/12/04 06:30:33;;;;;;;11.90;5.05;;;-9.70;48.80;;;;;;6245464;23;20246;-71
2023/12/04 06:33:00;;;;;;;15.48;6.95;;;-9.60;49.10;;;;;;6245675;23;20521;-72
2023/12/04 06:35:28;;;;;;;12.57;6.00;;;-9.60;49.10;;;;;;6247073;23;20249;-71
2023/12/04 06:37:55;;;;;;;8.77;4.43;;;-9.60;49.10;;;;;;6247376;23;20201;-71
2023/12/04 06:40:24;;;;;;;10.75;5.50;;;-9.60;48.90;;;;;;6247695;23;20169;-71
2023/12/04 06:42:52;;;;;;;11.93;6.40;;;-9.60;49.30;;;;;;6247224;23;20201;-71
2023/12/04 06:45:20;;;;;;;11.63;6.28;;;-9.60;50.10;;;;;;6264894;22;20204;-72
2023/12/04 06:47:49;;;;;;;12.55;6.07;;;-9.50;50.50;;;;;;6277373;22;20197;-71
2023/12/04 06:50:16;;;;;;;10.50;6.40;;;-9.40;50.80;;;;;;6277705;22;20248;-71
2023/12/04 06:52:43;;;;;;;15.65;8.27;;;-9.40;50.00;;;;;;6276658;22;20197;-71
2023/12/04 06:55:10;;;;;;;14.50;7.53;;;-9.40;50.10;;;;;;6277376;22;20211;-72
2023/12/04 06:57:39;;;;;;;14.60;7.35;;;-9.30;51.30;;;;;;6277583;22;20225;-70
2023/12/04 07:00:08;;;;;;;9.63;6.75;;;-9.20;50.70;;;;;;6277058;22;20245;-70
2023/12/04 07:02:35;;;;;;;12.70;7.72;;;-9.20;50.60;;;;;;6273229;22;20174;-71
2023/12/04 07:05:03;;;;;;;10.75;6.30;;;-9.10;50.70;;;;;;6277067;22;20201;-72
2023/12/04 07:07:30;;;;;;;12.55;7.32;;;-9.10;50.70;;;;;;6277059;22;20227;-72
2023/12/04 07:09:57;;;;;;;14.48;7.03;;;-9.10;51.40;;;;;;6276888;22;20620;-72
2023/12/04 07:12:24;;;;;;;10.88;6.25;;;-9.10;51.50;;;;;;6276799;22;20654;-72
2023/12/04 07:14:52;;;;;;;10.60;6.70;;;-9.00;51.80;;;;;;6277129;22;20150;-71
2023/12/04 07:17:20;;;;;;;11.73;7.05;;;-9.00;52.10;;;;;;6276228;22;20249;-71
2023/12/04 07:19:47;;;;;;;12.48;7.60;;;-8.90;52.40;;;;;;6276809;22;20162;-71
2023/12/04 07:22:14;;;;;;;9.63;6.97;;;-8.80;52.60;;;;;;6276246;22;20244;-73
2023/12/04 07:24:41;;;;;;;16.00;8.80;;;-8.70;53.00;;;;;;6276511;22;20204;-71
2023/12/04 07:27:09;;;;;;;14.98;9.52;;;-8.60;53.30;;;;;;6276645;22;20220;-72
2023/12/04 07:29:37;;;;;;;19.40;9.10;;;-8.50;53.50;;;;;;6276782;22;20219;-71
2023/12/04 07:32:07;;;;;;;17.40;11.02;;;-8.40;53.60;;;;;;6276725;22;20165;-71
2023/12/04 07:34:34;;;;;;;13.07;8.40;;;-8.30;53.50;;;;;;6276419;22;20476;-71
2023/12/04 07:37:01;;;;;;;15.02;8.25;;;-8.30;53.00;;;;;;6276706;22;20196;-71
2023/12/04 07:39:28;;;;;;;18.33;8.15;;;-8.20;52.60;;;;;;6277419;22;20245;-71
2023/12/04 07:41:54;;;;;;;8.75;6.22;;;-8.20;51.90;;;;;;6277380;22;20204;-71
2023/12/04 07:44:21;;;;;;;13.80;7.72;;;-8.20;51.40;;;;;;6277370;22;20224;-71
2023/12/04 07:46:48;;;;;;;17.98;9.13;;;-8.20;51.50;;;;;;6277785;22;20243;-71
2023/12/04 07:49:17;;;;;;;19.10;8.95;;;-8.10;51.70;;;;;;6277411;22;20193;-71
2023/12/04 07:51:43;;;;;;;17.35;9.43;;;-8.10;51.50;;;;;;6277780;22;20229;-71
2023/12/04 07:54:11;;;;;;;18.95;9.40;;;-8.10;51.70;;;;;;6277785;22;20249;-72
2023/12/04 07:56:38;;;;;;;19.58;9.15;;;-8.10;52.00;;;;;;6277476;22;20165;-71
2023/12/04 07:59:05;;;;;;;11.60;6.72;;;-8.10;52.10;;;;;;6277931;22;20189;-71
2023/12/04 08:01:32;;;;;;;11.75;5.47;;;-8.00;52.10;;;;;;6277856;22;20161;-72
2023/12/04 08:03:59;;;;;;;15.02;8.65;;;-8.00;52.10;;;;;;6277858;22;20248;-71
2023/12/04 08:06:28;;;;;;;14.55;8.65;;;-7.90;52.30;;;;;;6277490;22;20268;-72
2023/12/04 08:08:55;;;;;;;12.18;7.93;;;-7.80;52.30;;;;;;6277604;22;20261;-72
2023/12/04 08:11:22;;;;;;;13.77;8.73;;;-7.80;51.30;;;;;;6277132;22;20257;-71
2023/12/04 08:13:49;;;;;;;11.75;7.32;;;-7.80;50.70;;;;;;6277311;22;20232;-71
2023/12/04 08:16:16;;;;;;;14.05;8.07;;;-7.80;50.30;;;;;;6277144;22;20169;-71
2023/12/04 08:18:43;;;;;;;15.52;9.13;;;-7.80;50.50;;;;;;6277076;22;20197;-71
2023/12/04 08:21:11;;;;;;;26.30;10.60;;;-7.80;50.80;;;;;;6277379;22;20166;-72
2023/12/04 08:23:39;;;;;;;19.52;12.07;;;-7.80;51.10;;;;;;6277624;22;20521;-71
2023/12/04 08:26:07;;;;;;;22.45;10.20;;;-7.80;51.50;;;;;;6277257;22;20224;-71
2023/12/04 08:28:35;;;;;;;13.68;9.65;;;-7.80;52.20;;;;;;6277489;22;20481;-71
2023/12/04 08:31:02;;;;;;;14.73;8.07;;;-7.70;52.60;;;;;;6277398;22;20523;-72
2023/12/04 08:33:28;;;;;;;19.63;11.32;;;-7.60;52.40;;;;;;6276885;22;20686;-72
2023/12/04 08:35:55;;;;;;;15.35;8.65;;;-7.50;52.90;;;;;;6277269;22;20204;-71
2023/12/04 08:38:22;;;;;;;20.90;11.68;;;-7.40;53.90;;;;;;6277357;22;20203;-73
2023/12/04 08:40:51;;;;;;;20.40;12.75;;;-7.30;54.40;;;;;;6277234;22;20193;-72
2023/12/04 08:43:18;;;;;;;27.77;14.50;;;-7.20;54.40;;;;;;6277278;22;20188;-71
2023/12/04 08:45:46;;;;;;;14.05;10.48;;;-7.10;54.00;;;;;;6277035;22;20283;-71
2023/12/04 08:48:13;;;;;;;13.63;10.15;;;-7.00;54.20;;;;;;6277246;22;20189;-71
2023/12/04 08:50:40;;;;;;;16.95;10.25;;;-7.00;54.50;;;;;;6277382;22;20200;-71
2023/12/04 08:53:06;;;;;;;17.55;11.00;;;-6.90;54.90;;;;;;6277044;22;20197;-71
2023/12/04 08:55:33;;;;;;;15.25;9.70;;;-6.80;55.30;;;;;;6276918;22;20197;-71
2023/12/04 08:58:02;;;;;;;20.85;10.65;;;-6.70;54.80;;;;;;6276626;22;20715;-71
2023/12/04 09:00:28;;;;;;;21.08;10.70;;;-6.60;54.70;;;;;;6277438;22;20204;-72
2023/12/04 09:02:55;;;;;;;20.52;9.95;;;-6.50;54.20;;;;;;6277416;22;20236;-72
2023/12/04 09:05:23;;;;;;;17.63;9.35;;;-6.40;53.30;;;;;;6277276;22;20197;-71
2023/12/04 09:07:50;;;;;;;21.08;10.68;;;-6.40;52.70;;;;;;6277254;22;20185;-71
2023/12/04 09:10:17;;;;;;;21.13;13.63;;;-6.40;53.20;;;;;;6277137;22;20173;-72
2023/12/04 09:12:45;;;;;;;18.77;10.88;;;-6.30;53.80;;;;;;6276777;22;20162;-71
2023/12/04 09:15:13;;;;;;;25.88;12.80;;;-6.20;53.70;;;;;;6276930;22;20165;-71
2023/12/04 09:17:40;;;;;;;24.10;12.00;;;-6.10;53.90;;;;;;6276891;22;20527;-71
2023/12/04 09:20:08;;;;;;;26.90;12.85;;;-6.00;54.00;;;;;;6277427;22;20207;-72
2023/12/04 09:22:38;;;;;;;28.67;12.75;;;-5.90;53.90;;;;;;6277072;22;20428;-71
2023/12/04 09:25:05;;;;;;;26.85;15.50;;;-5.90;53.70;;;;;;6276579;22;20608;-72
2023/12/04 09:27:32;;;;;;;32.50;16.70;;;-5.80;53.40;;;;;;6276640;22;20640;-72
2023/12/04 09:29:59;;;;;;;28.95;18.35;;;-5.80;53.40;;;;;;6276778;22;20168;-71
2023/12/04 09:32:28;;;;;;;26.45;18.52;;;-5.70;53.80;;;;;;6276830;22;20192;-72
2023/12/04 09:34:55;;;;;;;34.60;19.45;;;-5.60;54.30;;;;;;6276668;22;20203;-72
2023/12/04 09:37:21;;;;;;;31.10;19.77;;;-5.60;54.70;;;;;;6276476;22;20205;-72
2023/12/04 09:39:49;;;;;;;23.17;15.70;;;-5.40;55.20;;;;;;6276826;22;20172;-72
2023/12/04 09:42:18;;;;;;;23.73;15.52;;;-5.30;55.30;;;;;;6276727;22;20166;-71
2023/12/04 09:44:46;;;;;;;27.73;16.40;;;-5.20;55.40;;;;;;6276819;22;20185;-72
2023/12/04 09:47:14;;;;;;;25.17;15.98;;;-5.10;55.40;;;;;;6276907;22;20225;-72
2023/12/04 09:49:43;;;;;;;24.02;14.60;;;-5.00;55.40;;;;;;6276660;22;20626;-72
2023/12/04 09:52:10;;;;;;;17.30;11.82;;;-4.90;55.80;;;;;;6276943;22;20244;-73
2023/12/04 09:54:37;;;;;;;18.95;9.55;;;-4.80;56.10;;;;;;6277296;22;20166;-72
2023/12/04 09:57:05;;;;;;;19.92;9.88;;;-4.70;56.10;;;;;;6276903;22;20170;-72
2023/12/04 09:59:33;;;;;;;15.52;9.40;;;-4.50;56.40;;;;;;6277000;22;20244;-72
2023/12/04 10:02:00;;;;;;;14.68;8.82;;;-4.40;56.50;;;;;;6276509;22;20631;-72
2023/12/04 10:04:27;;;;;;;16.95;10.93;;;-4.20;56.80;;;;;;6276505;22;20197;-72
2023/12/04 10:06:55;;;;;;;21.30;11.57;;;-4.10;57.10;;;;;;6276728;22;20542;-72
2023/12/04 10:09:23;;;;;;;18.10;12.68;;;-3.90;57.70;;;;;;6278800;22;20300;-72
2023/12/04 10:11:52;;;;;;;14.23;10.77;;;-3.70;57.80;;;;;;6278952;22;20485;-72
2023/12/04 10:14:20;;;;;;;16.95;9.93;;;-3.50;57.50;;;;;;6278485;22;20165;-72
2023/12/04 10:16:49;;;;;;;14.82;9.35;;;-3.40;57.50;;;;;;6278867;22;20192;-72
2023/12/04 10:19:18;;;;;;;55.78;30.95;;;-3.20;56.90;;;;;;6278721;22;20169;-72
2023/12/04 10:21:46;;;;;;;19.42;12.40;;;-3.10;56.10;;;;;;6278771;22;20620;-72
2023/12/04 10:24:27;;;;;;;15.80;10.07;;;-3.00;56.20;;;;;;6278730;22;20615;-72
2023/12/04 10:26:54;;;;;;;8.88;6.85;;;-2.90;55.60;;;;;;6278355;22;20209;-72
2023/12/04 10:29:21;;;;;;;9.68;6.20;;;-2.90;55.40;;;;;;6278392;22;20248;-72
2023/12/04 10:31:50;;;;;;;10.02;6.28;;;-2.90;55.30;;;;;;6278449;22;20219;-72
2023/12/04 10:34:17;;;;;;;12.43;7.70;;;-2.90;55.40;;;;;;6278808;22;20244;-72
2023/12/04 10:36:45;;;;;;;10.93;7.90;;;-2.90;55.30;;;;;;6278803;22;20542;-72
2023/12/04 10:39:14;;;;;;;10.68;8.30;;;-2.90;55.60;;;;;;6278620;22;20485;-72
2023/12/04 10:41:41;;;;;;;11.40;6.40;;;-3.00;55.50;;;;;;6278544;22;20260;-72
2023/12/04 10:44:09;;;;;;;14.25;8.20;;;-2.90;55.60;;;;;;6278473;22;20161;-72
2023/12/04 10:46:38;;;;;;;13.95;7.60;;;-3.00;55.20;;;;;;6278386;22;20180;-72
2023/12/04 10:49:05;;;;;;;11.25;7.35;;;-3.00;55.20;;;;;;6278427;22;20161;-72
2023/12/04 10:51:32;;;;;;;11.82;7.53;;;-3.10;55.70;;;;;;6278412;22;20189;-72
2023/12/04 10:54:00;;;;;;;13.95;9.48;;;-3.00;56.30;;;;;;6278772;22;20162;-72
2023/12/04 10:56:37;;;;;;;16.00;11.90;;;-3.00;57.10;;;;;;6278012;22;20604;-72
2023/12/04 10:59:10;;;;;;;20.40;13.75;;;-2.90;57.30;;;;;;6278157;22;20153;-72
2023/12/04 11:01:38;;;;;;;25.92;15.68;;;-2.90;57.30;;;;;;6278704;22;20233;-72
2023/12/04 11:04:13;;;;;;;24.73;14.00;;;-2.90;57.60;;;;;;6278463;22;20245;-72
2023/12/04 11:06:41;;;;;;;17.95;12.35;;;-2.80;57.90;;;;;;6278323;22;20256;-72
2023/12/04 11:09:09;;;;;;;20.48;11.23;;;-2.90;57.70;;;;;;6278376;22;20200;-73
2023/12/04 11:11:45;;;;;;;25.60;20.85;;;-2.80;58.00;;;;;;6278022;22;20256;-72
2023/12/04 11:14:18;;;;;;;19.13;13.65;;;-2.80;58.40;;;;;;6278536;22;20156;-72
2023/12/04 11:16:54;;;;;;;20.70;12.52;;;-2.70;59.00;;;;;;6278366;22;20185;-72
2023/12/04 11:19:32;;;;;;;27.65;14.68;;;-2.70;59.00;;;;;;6277984;22;20157;-72
2023/12/04 11:21:59;;;;;;;19.30;12.15;;;-2.60;59.30;;;;;;6278600;22;20308;-72
2023/12/04 11:24:26;;;;;;;19.75;12.88;;;-2.60;58.40;;;;;;6277661;22;20193;-72
2023/12/04 11:26:56;;;;;;;23.40;12.93;;;-2.50;57.20;;;;;;6277996;22;20264;-72
2023/12/04 11:29:23;;;;;;;14.23;9.90;;;-2.50;57.40;;;;;;6277641;22;20173;-72
2023/12/04 11:31:50;;;;;;;11.77;8.15;;;-2.50;58.20;;;;;;6278149;22;20165;-72
2023/12/04 11:34:17;;;;;;;10.93;6.88;;;-2.50;58.90;;;;;;6277557;22;20630;-72
2023/12/04 11:36:45;;;;;;;12.10;6.72;;;-2.40;59.40;;;;;;6277921;22;20204;-72
2023/12/04 11:39:12;;;;;;;13.95;8.00;;;-2.40;59.30;;;;;;6277951;22;20484;-72
2023/12/04 11:41:41;;;;;;;10.85;7.53;;;-2.30;59.20;;;;;;6277525;22;20173;-72
2023/12/04 11:44:15;;;;;;;10.18;7.47;;;-2.30;59.10;;;;;;6277052;22;20542;-72
2023/12/04 11:46:57;;;;;;;11.93;7.85;;;-2.30;59.00;;;;;;6277525;22;20213;-72
2023/12/04 11:49:31;;;;;;;18.17;10.98;;;-2.20;59.20;;;;;;6278109;22;20150;-72
2023/12/04 11:51:58;;;;;;;12.38;8.77;;;-2.20;59.20;;;;;;6277770;22;20168;-72
2023/12/04 11:54:28;;;;;;;11.77;8.90;;;-2.20;58.60;;;;;;6277755;22;20161;-72
2023/12/04 11:56:59;;;;;;;17.42;10.40;;;-2.20;57.70;;;;;;6277403;22;20224;-73
2023/12/04 11:59:28;;;;;;;13.20;9.90;;;-2.20;57.50;;;;;;6277349;22;20176;-72
2023/12/04 12:01:56;;;;;;;15.27;9.27;;;-2.20;57.50;;;;;;6277667;22;20166;-72
2023/12/04 12:04:23;;;;;;;18.73;10.23;;;-2.20;57.80;;;;;;6277739;22;20240;-72
2023/12/04 12:06:51;;;;;;;16.65;9.13;;;-2.30;58.20;;;;;;6276367;22;20220;-72
2023/12/04 12:09:18;;;;;;;15.80;11.00;;;-2.30;58.80;;;;;;6276985;22;20612;-72
2023/12/04 12:11:46;;;;;;;19.30;12.45;;;-2.20;59.30;;;;;;6277410;22;20551;-72
2023/12/04 12:14:13;;;;;;;14.27;9.02;;;-2.20;59.60;;;;;;6277412;22;20557;-72
2023/12/04 12:16:41;;;;;;;11.93;8.25;;;-2.20;59.50;;;;;;6277479;22;20193;-72
2023/12/04 12:19:08;;;;;;;13.48;10.30;;;-2.10;59.30;;;;;;6277436;22;20162;-72
2023/12/04 12:21:35;;;;;;;17.08;12.35;;;-2.10;59.40;;;;;;6277171;22;20194;-72
2023/12/04 12:24:02;;;;;;;17.58;11.90;;;-2.00;59.90;;;;;;6277207;22;20244;-72
2023/12/04 12:26:30;;;;;;;16.92;10.65;;;-2.00;60.20;;;;;;6277393;22;20161;-72
2023/12/04 12:29:02;;;;;;;16.90;10.85;;;-1.90;60.20;;;;;;6277572;22;20185;-73
2023/12/04 12:31:29;;;;;;;16.17;10.85;;;-1.80;61.00;;;;;;6277721;22;20229;-73
2023/12/04 12:33:58;;;;;;;16.38;12.00;;;-1.70;61.30;;;;;;6276679;22;20161;-73
2023/12/04 12:36:25;;;;;;;14.18;9.30;;;-1.60;61.30;;;;;;6276913;22;20161;-75
2023/12/04 12:38:52;;;;;;;13.40;9.30;;;-1.40;61.30;;;;;;6276860;22;20197;-72